createdAt,value
2022-12-28T00:04:51.363Z,99607.45
2022-12-28T00:15:19.004Z,99603.23
2022-12-28T00:25:47.202Z,99595.27
2022-12-28T00:36:16.413Z,99602.23
2022-12-28T00:46:44.514Z,99590.65
2022-12-28T00:57:11.128Z,99592.50
2022-12-28T01:07:39.240Z,99596.67
2022-12-28T01:18:07.663Z,99598.44
2022-12-28T01:28:37.129Z,99600.03
2022-12-28T01:39:07.364Z,99594.85
2022-12-28T01:49:38.330Z,99587.13
2022-12-28T02:00:12.207Z,99581.42
2022-12-28T02:10:45.783Z,99567.98
2022-12-28T02:21:30.816Z,99566.87
2022-12-28T02:32:07.637Z,99531.33
2022-12-28T02:42:36.172Z,99522.77
2022-12-28T02:53:25.839Z,99513.05
2022-12-28T03:04:05.231Z,99505.50
2022-12-28T03:14:39.012Z,99497.09
2022-12-28T03:25:29.122Z,99494.13
2022-12-28T03:36:04.786Z,99491.48
2022-12-28T03:46:38.998Z,99484.81
2022-12-28T03:57:06.654Z,99467.34
2022-12-28T04:07:34.376Z,99453.29
2022-12-28T04:18:04.238Z,99432.95
2022-12-28T04:28:33.460Z,99425.98
2022-12-28T04:39:02.729Z,99415.61
2022-12-28T04:49:28.717Z,99412.88
2022-12-28T04:59:56.240Z,99409.20
2022-12-28T05:10:24.058Z,99401.50
2022-12-28T05:20:52.159Z,99398.83
2022-12-28T05:31:23.171Z,99385.64
2022-12-28T05:41:51.405Z,99376.81
2022-12-28T05:52:19.086Z,99373.11
2022-12-28T06:02:47.415Z,99373.16
2022-12-28T06:13:15.698Z,99367.02
2022-12-28T06:23:45.072Z,99360.54
2022-12-28T06:34:12.760Z,99345.83
2022-12-28T06:44:44.532Z,99334.69
2022-12-28T06:55:12.888Z,99342.73
2022-12-28T07:05:40.558Z,99339.81
2022-12-28T07:16:13.027Z,99339.58
2022-12-28T07:26:41.091Z,99330.77
2022-12-28T07:37:08.590Z,99318.63
2022-12-28T07:47:36.049Z,99315.21
2022-12-28T07:58:03.846Z,99311.67
2022-12-28T08:08:32.258Z,99311.25
2022-12-28T08:18:59.747Z,99297.02
2022-12-28T08:29:28.300Z,99292.55
2022-12-28T08:39:56.465Z,99298.53
2022-12-28T08:50:31.174Z,99297.67
2022-12-28T09:01:05.702Z,99290.38
2022-12-28T09:11:34.740Z,99284.64
2022-12-28T09:22:02.431Z,99296.96
2022-12-28T09:32:30.618Z,99288.52
2022-12-28T09:42:59.689Z,99284.27
2022-12-28T09:53:34.595Z,99281.20
2022-12-28T10:04:03.791Z,99282.93
2022-12-28T10:14:34.552Z,99275.05
2022-12-28T10:25:02.142Z,99260.42
2022-12-28T10:35:34.523Z,99225.30
2022-12-28T10:46:04.167Z,99186.02
2022-12-28T10:56:33.415Z,99170.82
2022-12-28T11:07:03.111Z,99147.96
2022-12-28T11:17:37.788Z,99138.92
2022-12-28T11:28:13.676Z,99124.54
2022-12-28T11:38:43.054Z,99102.61
2022-12-28T11:59:43.166Z,99066.21
2022-12-28T12:10:28.100Z,99057.34
2022-12-28T12:21:03.283Z,99034.87
2022-12-28T12:31:37.059Z,99035.86
2022-12-28T12:42:18.592Z,99011.69
2022-12-28T12:53:01.333Z,99016.13
2022-12-28T13:03:40.091Z,99010.51
2022-12-28T13:14:19.064Z,98984.14
2022-12-28T13:24:47.961Z,98971.92
2022-12-28T13:35:23.243Z,98954.73
2022-12-28T13:45:56.530Z,98940.05
2022-12-28T13:56:26.115Z,98939.75
2022-12-28T14:06:53.891Z,98951.20
2022-12-28T14:17:23.756Z,98942.28
2022-12-28T14:27:58.097Z,98946.59
2022-12-28T14:38:29.011Z,98943.16
2022-12-28T14:48:56.657Z,98941.49
2022-12-28T14:59:28.628Z,98939.84
2022-12-28T15:09:56.879Z,98930.98
2022-12-28T15:20:24.786Z,98909.99
2022-12-28T15:30:52.391Z,98901.61
2022-12-28T15:41:38.578Z,98897.80
2022-12-28T15:52:06.537Z,98880.48
2022-12-28T16:02:34.411Z,98872.05
2022-12-28T16:13:02.193Z,98871.38
2022-12-28T16:23:33.258Z,98877.77
2022-12-28T16:34:02.410Z,98880.89
2022-12-28T16:44:30.491Z,98869.19
2022-12-28T16:54:58.124Z,98869.03
2022-12-28T17:05:25.728Z,98856.81
2022-12-28T17:15:53.407Z,98856.96
2022-12-28T17:26:21.000Z,98859.19
2022-12-28T17:36:48.731Z,98866.98
2022-12-28T17:47:16.348Z,98869.67
2022-12-28T17:57:44.004Z,98860.54
2022-12-28T18:08:11.671Z,98861.92
2022-12-28T18:18:39.535Z,98865.35
2022-12-28T18:29:07.334Z,98861.39
2022-12-28T18:39:35.671Z,98849.69
2022-12-28T18:50:03.422Z,98857.85
2022-12-28T19:00:31.019Z,98850.79
2022-12-28T19:10:58.644Z,98848.06
2022-12-28T19:21:30.941Z,98854.76
2022-12-28T19:31:58.751Z,98843.03
2022-12-28T19:42:26.358Z,98834.73
2022-12-28T19:52:54.033Z,98829.48
2022-12-28T20:03:21.968Z,98818.52
2022-12-28T20:13:52.597Z,98805.39
2022-12-28T20:24:21.886Z,98795.98
2022-12-28T20:34:49.500Z,98798.55
2022-12-28T20:45:17.205Z,98790.93
2022-12-28T20:55:44.744Z,98797.50
2022-12-28T21:06:12.783Z,98776.54
2022-12-28T21:16:40.464Z,98762.04
2022-12-28T21:27:08.230Z,98753.29
2022-12-28T21:37:35.771Z,98745.10
2022-12-28T21:48:03.465Z,98740.83
2022-12-28T21:58:30.954Z,98733.29
2022-12-28T22:09:16.255Z,98723.05
2022-12-28T22:19:43.787Z,98712.56
2022-12-28T22:30:13.251Z,98715.17
2022-12-28T22:40:40.794Z,98715.40
2022-12-28T22:51:10.648Z,98713.02
2022-12-28T23:01:38.740Z,98720.83
2022-12-28T23:12:07.132Z,98706.31
2022-12-28T23:22:53.895Z,98707.37
2022-12-28T23:33:21.982Z,98700.10
2022-12-28T23:43:49.643Z,98697.41
2022-12-28T23:54:19.608Z,98705.77
